<?xml version="1.0" encoding="UTF-8"?>
<gpx creator="Wikiloc - https://www.wikiloc.com" version="1.1" xmlns="http://www.topografix.com/GPX/1/1" xmlns:xsi="http://www.w3.org/2001/XMLSchema-instance" xsi:schemaLocation="http://www.topografix.com/GPX/1/1 http://www.topografix.com/GPX/1/1/gpx.xsd">
  <metadata>
    <name>Wikiloc - Playa la Consolación - Playa la Coronela - Playa la Consolac...</name>
    <link href="https://www.wikiloc.com/hiking-trails/playa-la-consolacion-playa-la-coronela-playa-la-consolacion-176434112">
      <text>Playa la Consolación - Playa la Coronela - Playa la Consolac... on Wikiloc</text>
    </link>
    <time>2024-07-06T12:41:49.942Z</time>
  </metadata>
  <trk>
    <name>Playa la Consolación - Playa la Coronela - Playa la Consolac...</name>
    <cmt></cmt>
    <desc></desc>
    <trkseg>
      <trkpt lat="28.375423" lon="-16.743495">
        <ele>43.123</ele>
        <time>2024-07-06T09:18:58.164Z</time>
      </trkpt>
      <trkpt lat="28.375339" lon="-16.743208">
        <ele>34.983</ele>
        <time>2024-07-06T09:19:39.938Z</time>
      </trkpt>
      <trkpt lat="28.375698" lon="-16.743013">
        <ele>24.011</ele>
        <time>2024-07-06T09:21:02.938Z</time>
      </trkpt>
      <trkpt lat="28.375864" lon="-16.742480">
        <ele>9.909</ele>
        <time>2024-07-06T09:22:19.938Z</time>
      </trkpt>
      <trkpt lat="28.375998" lon="-16.742500">
        <ele>9.723</ele>
        <time>2024-07-06T09:23:34.938Z</time>
      </trkpt>
      <trkpt lat="28.376100" lon="-16.742910">
        <ele>10.529</ele>
        <time>2024-07-06T09:24:11.938Z</time>
      </trkpt>
      <trkpt lat="28.376445" lon="-16.742646">
        <ele>20.398</ele>
        <time>2024-07-06T09:25:12.938Z</time>
      </trkpt>
      <trkpt lat="28.376644" lon="-16.743042">
        <ele>20.176</ele>
        <time>2024-07-06T09:26:36.938Z</time>
      </trkpt>
      <trkpt lat="28.376931" lon="-16.743224">
        <ele>23.425</ele>
        <time>2024-07-06T09:27:31.937Z</time>
      </trkpt>
      <trkpt lat="28.377228" lon="-16.743172">
        <ele>21.186</ele>
        <time>2024-07-06T09:28:06.937Z</time>
      </trkpt>
      <trkpt lat="28.377729" lon="-16.742755">
        <ele>25.913</ele>
        <time>2024-07-06T09:29:11.937Z</time>
      </trkpt>
      <trkpt lat="28.378009" lon="-16.741855">
        <ele>25.313</ele>
        <time>2024-07-06T09:30:35.937Z</time>
      </trkpt>
      <trkpt lat="28.377817" lon="-16.741052">
        <ele>30.184</ele>
        <time>2024-07-06T09:32:32.937Z</time>
      </trkpt>
      <trkpt lat="28.377846" lon="-16.740499">
        <ele>32.866</ele>
        <time>2024-07-06T09:38:51.936Z</time>
      </trkpt>
      <trkpt lat="28.378075" lon="-16.740148">
        <ele>28.729</ele>
        <time>2024-07-06T09:42:32.935Z</time>
      </trkpt>
      <trkpt lat="28.378234" lon="-16.740029">
        <ele>18.421</ele>
        <time>2024-07-06T09:45:04.935Z</time>
      </trkpt>
      <trkpt lat="28.378262" lon="-16.740235">
        <ele>16.609</ele>
        <time>2024-07-06T09:45:52.935Z</time>
      </trkpt>
      <trkpt lat="28.378477" lon="-16.740368">
        <ele>15.317</ele>
        <time>2024-07-06T09:47:15.934Z</time>
      </trkpt>
      <trkpt lat="28.379362" lon="-16.740441">
        <ele>15.463</ele>
        <time>2024-07-06T09:50:35.934Z</time>
      </trkpt>
      <trkpt lat="28.379380" lon="-16.739852">
        <ele>27.742</ele>
        <time>2024-07-06T09:51:56.440Z</time>
      </trkpt>
      <trkpt lat="28.379759" lon="-16.739724">
        <ele>20.340</ele>
        <time>2024-07-06T09:55:03.939Z</time>
      </trkpt>
      <trkpt lat="28.379723" lon="-16.739265">
        <ele>28.599</ele>
        <time>2024-07-06T10:07:37.937Z</time>
      </trkpt>
      <trkpt lat="28.379462" lon="-16.739168">
        <ele>26.140</ele>
        <time>2024-07-06T10:11:03.937Z</time>
      </trkpt>
      <trkpt lat="28.379254" lon="-16.739480">
        <ele>19.467</ele>
        <time>2024-07-06T10:15:34.936Z</time>
      </trkpt>
      <trkpt lat="28.379167" lon="-16.739351">
        <ele>20.867</ele>
        <time>2024-07-06T10:16:08.936Z</time>
      </trkpt>
      <trkpt lat="28.379306" lon="-16.738694">
        <ele>22.958</ele>
        <time>2024-07-06T10:17:27.936Z</time>
      </trkpt>
      <trkpt lat="28.379620" lon="-16.738251">
        <ele>25.061</ele>
        <time>2024-07-06T10:18:10.936Z</time>
      </trkpt>
      <trkpt lat="28.379872" lon="-16.738261">
        <ele>23.521</ele>
        <time>2024-07-06T10:18:33.936Z</time>
      </trkpt>
      <trkpt lat="28.379929" lon="-16.738765">
        <ele>17.613</ele>
        <time>2024-07-06T10:19:35.936Z</time>
      </trkpt>
      <trkpt lat="28.380107" lon="-16.738701">
        <ele>15.809</ele>
        <time>2024-07-06T10:21:34.935Z</time>
      </trkpt>
      <trkpt lat="28.380099" lon="-16.738983">
        <ele>16.557</ele>
        <time>2024-07-06T10:28:09.934Z</time>
      </trkpt>
      <trkpt lat="28.380259" lon="-16.739024">
        <ele>18.653</ele>
        <time>2024-07-06T10:28:32.934Z</time>
      </trkpt>
      <trkpt lat="28.379855" lon="-16.738931">
        <ele>29.112</ele>
        <time>2024-07-06T10:38:02.932Z</time>
      </trkpt>
      <trkpt lat="28.379944" lon="-16.738203">
        <ele>24.790</ele>
        <time>2024-07-06T10:45:25.931Z</time>
      </trkpt>
      <trkpt lat="28.379838" lon="-16.737908">
        <ele>29.059</ele>
        <time>2024-07-06T10:46:09.931Z</time>
      </trkpt>
      <trkpt lat="28.380010" lon="-16.737843">
        <ele>30.230</ele>
        <time>2024-07-06T10:47:32.931Z</time>
      </trkpt>
      <trkpt lat="28.380586" lon="-16.738425">
        <ele>19.867</ele>
        <time>2024-07-06T10:57:33.929Z</time>
      </trkpt>
      <trkpt lat="28.380518" lon="-16.738495">
        <ele>19.867</ele>
        <time>2024-07-06T10:59:32.929Z</time>
      </trkpt>
      <trkpt lat="28.380463" lon="-16.738261">
        <ele>21.448</ele>
        <time>2024-07-06T11:01:10.929Z</time>
      </trkpt>
      <trkpt lat="28.380558" lon="-16.738259">
        <ele>17.238</ele>
        <time>2024-07-06T11:04:02.928Z</time>
      </trkpt>
      <trkpt lat="28.380050" lon="-16.737890">
        <ele>26.870</ele>
        <time>2024-07-06T11:11:05.927Z</time>
      </trkpt>
      <trkpt lat="28.379969" lon="-16.736975">
        <ele>27.817</ele>
        <time>2024-07-06T11:14:03.927Z</time>
      </trkpt>
      <trkpt lat="28.379827" lon="-16.736628">
        <ele>30.009</ele>
        <time>2024-07-06T11:15:54.927Z</time>
      </trkpt>
      <trkpt lat="28.379622" lon="-16.736557">
        <ele>32.044</ele>
        <time>2024-07-06T11:16:49.927Z</time>
      </trkpt>
      <trkpt lat="28.379568" lon="-16.736030">
        <ele>32.830</ele>
        <time>2024-07-06T11:18:12.927Z</time>
      </trkpt>
      <trkpt lat="28.379759" lon="-16.735359">
        <ele>28.779</ele>
        <time>2024-07-06T11:24:27.926Z</time>
      </trkpt>
      <trkpt lat="28.380260" lon="-16.735089">
        <ele>29.757</ele>
        <time>2024-07-06T11:25:15.926Z</time>
      </trkpt>
      <trkpt lat="28.381774" lon="-16.733533">
        <ele>25.756</ele>
        <time>2024-07-06T11:28:02.925Z</time>
      </trkpt>
      <trkpt lat="28.381631" lon="-16.732619">
        <ele>22.787</ele>
        <time>2024-07-06T11:29:15.925Z</time>
      </trkpt>
      <trkpt lat="28.381023" lon="-16.732111">
        <ele>28.414</ele>
        <time>2024-07-06T11:30:44.925Z</time>
      </trkpt>
      <trkpt lat="28.380128" lon="-16.732447">
        <ele>27.694</ele>
        <time>2024-07-06T11:32:01.925Z</time>
      </trkpt>
      <trkpt lat="28.379672" lon="-16.732412">
        <ele>31.375</ele>
        <time>2024-07-06T11:32:35.925Z</time>
      </trkpt>
      <trkpt lat="28.379547" lon="-16.732243">
        <ele>32.597</ele>
        <time>2024-07-06T11:33:35.925Z</time>
      </trkpt>
      <trkpt lat="28.379300" lon="-16.732328">
        <ele>33.123</ele>
        <time>2024-07-06T11:36:56.924Z</time>
      </trkpt>
      <trkpt lat="28.379133" lon="-16.732189">
        <ele>35.425</ele>
        <time>2024-07-06T11:37:50.924Z</time>
      </trkpt>
      <trkpt lat="28.378947" lon="-16.732375">
        <ele>33.309</ele>
        <time>2024-07-06T11:38:59.924Z</time>
      </trkpt>
      <trkpt lat="28.378695" lon="-16.732378">
        <ele>34.460</ele>
        <time>2024-07-06T11:39:20.924Z</time>
      </trkpt>
      <trkpt lat="28.378210" lon="-16.731602">
        <ele>27.766</ele>
        <time>2024-07-06T11:41:17.924Z</time>
      </trkpt>
      <trkpt lat="28.378151" lon="-16.731117">
        <ele>25.055</ele>
        <time>2024-07-06T11:43:04.924Z</time>
      </trkpt>
      <trkpt lat="28.378435" lon="-16.730938">
        <ele>16.573</ele>
        <time>2024-07-06T11:44:16.923Z</time>
      </trkpt>
      <trkpt lat="28.378336" lon="-16.730828">
        <ele>15.572</ele>
        <time>2024-07-06T11:44:57.923Z</time>
      </trkpt>
      <trkpt lat="28.378255" lon="-16.731105">
        <ele>19.383</ele>
        <time>2024-07-06T11:48:33.923Z</time>
      </trkpt>
      <trkpt lat="28.377757" lon="-16.731414">
        <ele>26.120</ele>
        <time>2024-07-06T11:49:30.923Z</time>
      </trkpt>
      <trkpt lat="28.377376" lon="-16.731115">
        <ele>19.980</ele>
        <time>2024-07-06T11:50:11.923Z</time>
      </trkpt>
      <trkpt lat="28.377298" lon="-16.731468">
        <ele>24.561</ele>
        <time>2024-07-06T12:03:06.947Z</time>
      </trkpt>
      <trkpt lat="28.376670" lon="-16.730941">
        <ele>30.757</ele>
        <time>2024-07-06T12:05:58.947Z</time>
      </trkpt>
      <trkpt lat="28.376746" lon="-16.731075">
        <ele>30.400</ele>
        <time>2024-07-06T12:06:28.947Z</time>
      </trkpt>
      <trkpt lat="28.376790" lon="-16.730893">
        <ele>29.120</ele>
        <time>2024-07-06T12:07:49.947Z</time>
      </trkpt>
      <trkpt lat="28.376539" lon="-16.731056">
        <ele>30.209</ele>
        <time>2024-07-06T12:10:31.946Z</time>
      </trkpt>
      <trkpt lat="28.376305" lon="-16.731512">
        <ele>27.996</ele>
        <time>2024-07-06T12:11:10.946Z</time>
      </trkpt>
      <trkpt lat="28.376348" lon="-16.731812">
        <ele>21.952</ele>
        <time>2024-07-06T12:12:37.946Z</time>
      </trkpt>
      <trkpt lat="28.376006" lon="-16.732952">
        <ele>26.781</ele>
        <time>2024-07-06T12:14:02.946Z</time>
      </trkpt>
      <trkpt lat="28.375438" lon="-16.733574">
        <ele>31.119</ele>
        <time>2024-07-06T12:15:05.946Z</time>
      </trkpt>
      <trkpt lat="28.374309" lon="-16.736036">
        <ele>42.728</ele>
        <time>2024-07-06T12:18:44.945Z</time>
      </trkpt>
      <trkpt lat="28.373768" lon="-16.736392">
        <ele>51.879</ele>
        <time>2024-07-06T12:19:54.945Z</time>
      </trkpt>
      <trkpt lat="28.373183" lon="-16.736136">
        <ele>66.216</ele>
        <time>2024-07-06T12:20:59.945Z</time>
      </trkpt>
      <trkpt lat="28.373340" lon="-16.736556">
        <ele>66.266</ele>
        <time>2024-07-06T12:21:40.945Z</time>
      </trkpt>
      <trkpt lat="28.373899" lon="-16.736955">
        <ele>78.217</ele>
        <time>2024-07-06T12:22:29.945Z</time>
      </trkpt>
      <trkpt lat="28.374218" lon="-16.737397">
        <ele>74.732</ele>
        <time>2024-07-06T12:23:07.945Z</time>
      </trkpt>
      <trkpt lat="28.374213" lon="-16.737680">
        <ele>72.592</ele>
        <time>2024-07-06T12:24:13.945Z</time>
      </trkpt>
      <trkpt lat="28.373930" lon="-16.737898">
        <ele>69.611</ele>
        <time>2024-07-06T12:25:03.944Z</time>
      </trkpt>
      <trkpt lat="28.373913" lon="-16.738288">
        <ele>66.009</ele>
        <time>2024-07-06T12:25:31.944Z</time>
      </trkpt>
      <trkpt lat="28.374026" lon="-16.738746">
        <ele>71.084</ele>
        <time>2024-07-06T12:26:04.944Z</time>
      </trkpt>
      <trkpt lat="28.374534" lon="-16.739212">
        <ele>73.520</ele>
        <time>2024-07-06T12:27:09.944Z</time>
      </trkpt>
      <trkpt lat="28.374638" lon="-16.739553">
        <ele>77.199</ele>
        <time>2024-07-06T12:27:32.944Z</time>
      </trkpt>
      <trkpt lat="28.374586" lon="-16.740054">
        <ele>78.467</ele>
        <time>2024-07-06T12:28:09.944Z</time>
      </trkpt>
      <trkpt lat="28.374256" lon="-16.740575">
        <ele>83.566</ele>
        <time>2024-07-06T12:28:55.944Z</time>
      </trkpt>
      <trkpt lat="28.374091" lon="-16.740701">
        <ele>82.827</ele>
        <time>2024-07-06T12:29:11.944Z</time>
      </trkpt>
      <trkpt lat="28.373436" lon="-16.740744">
        <ele>85.054</ele>
        <time>2024-07-06T12:30:13.944Z</time>
      </trkpt>
      <trkpt lat="28.373139" lon="-16.741143">
        <ele>90.684</ele>
        <time>2024-07-06T12:31:09.944Z</time>
      </trkpt>
      <trkpt lat="28.373968" lon="-16.741959">
        <ele>95.115</ele>
        <time>2024-07-06T12:33:22.943Z</time>
      </trkpt>
      <trkpt lat="28.373742" lon="-16.741880">
        <ele>95.658</ele>
        <time>2024-07-06T12:34:02.943Z</time>
      </trkpt>
      <trkpt lat="28.373721" lon="-16.742277">
        <ele>102.952</ele>
        <time>2024-07-06T12:34:39.943Z</time>
      </trkpt>
      <trkpt lat="28.373307" lon="-16.743058">
        <ele>85.717</ele>
        <time>2024-07-06T12:35:41.943Z</time>
      </trkpt>
      <trkpt lat="28.373287" lon="-16.743621">
        <ele>86.209</ele>
        <time>2024-07-06T12:36:41.943Z</time>
      </trkpt>
      <trkpt lat="28.373343" lon="-16.743711">
        <ele>86.086</ele>
        <time>2024-07-06T12:36:49.943Z</time>
      </trkpt>
      <trkpt lat="28.373459" lon="-16.743408">
        <ele>86.062</ele>
        <time>2024-07-06T12:37:12.943Z</time>
      </trkpt>
      <trkpt lat="28.373871" lon="-16.743475">
        <ele>77.821</ele>
        <time>2024-07-06T12:38:41.943Z</time>
      </trkpt>
      <trkpt lat="28.373724" lon="-16.743459">
        <ele>78.479</ele>
        <time>2024-07-06T12:39:05.942Z</time>
      </trkpt>
      <trkpt lat="28.374333" lon="-16.743037">
        <ele>64.358</ele>
        <time>2024-07-06T12:40:12.942Z</time>
      </trkpt>
      <trkpt lat="28.375276" lon="-16.743529">
        <ele>56.739</ele>
        <time>2024-07-06T12:41:49.942Z</time>
      </trkpt>
    </trkseg>
  </trk></gpx>